Time;durP1;ratioP1;P1;durP2;ratioP2;P2;SDS_P1;SDS_P2;PMS_P1;PMS_P2;Temp;Humidity;BMP_temperature;BMP_pressure;BME280_temperature;BME280_humidity;BME280_pressure;Samples;Min_cycle;Max_cycle;Signal;HPM_P1;HPM_P2
2022/11/06 00:00:05;;;;;;;8.83;4.00;;;3.80;97.30;;;;;;5041782;28;20426;-86
2022/11/06 00:02:30;;;;;;;5.20;4.23;;;3.80;97.30;;;;;;5062252;28;20426;-87
2022/11/06 00:06:46;;;;;;;5.17;3.37;;;3.80;97.30;;;;;;5047536;28;20439;-88
2022/11/06 00:07:46;;;;;;;9.60;4.17;;;3.80;97.30;;;;;;5082260;28;20233;-88
2022/11/06 00:10:15;;;;;;;2.33;2.13;;;3.80;97.30;;;;;;5060377;28;20482;-89
2022/11/06 00:12:40;;;;;;;3.33;3.13;;;3.70;97.30;;;;;;5048332;28;20425;-87
2022/11/06 00:15:07;;;;;;;3.00;2.50;;;3.70;97.30;;;;;;5055390;28;20417;-87
2022/11/06 00:17:35;;;;;;;4.43;3.43;;;3.70;97.30;;;;;;5036050;28;20231;-87
2022/11/06 00:20:11;;;;;;;2.20;2.07;;;3.70;97.30;;;;;;5034657;28;20438;-87
2022/11/06 00:22:37;;;;;;;10.13;1.97;;;3.70;97.30;;;;;;5034625;28;20422;-85
2022/11/06 00:25:06;;;;;;;3.93;3.73;;;3.70;97.30;;;;;;5037611;28;20802;-86
2022/11/06 00:27:37;;;;;;;4.00;3.80;;;3.70;97.30;;;;;;5054281;28;20207;-86
2022/11/06 00:30:05;;;;;;;7.23;3.33;;;3.60;97.30;;;;;;5050174;28;20418;-87
2022/11/06 00:32:31;;;;;;;4.83;4.10;;;3.70;97.30;;;;;;5034396;28;20994;-86
2022/11/06 00:34:56;;;;;;;1.70;1.60;;;3.70;97.30;;;;;;5034299;28;20419;-87
2022/11/06 00:37:22;;;;;;;3.00;2.80;;;3.60;97.30;;;;;;5034714;28;20203;-87
2022/11/06 00:39:47;;;;;;;5.10;2.50;;;3.60;97.30;;;;;;5057279;28;20193;-87
2022/11/06 00:42:13;;;;;;;4.53;3.50;;;3.60;97.30;;;;;;5042927;28;20176;-87
2022/11/06 00:44:38;;;;;;;3.20;3.00;;;3.60;97.30;;;;;;5034092;28;20180;-87
2022/11/06 00:47:04;;;;;;;3.37;2.40;;;3.50;97.30;;;;;;5034410;28;20550;-87
2022/11/06 00:49:29;;;;;;;3.73;3.53;;;3.50;97.30;;;;;;5037531;28;20198;-87
2022/11/06 00:51:55;;;;;;;1.80;1.70;;;3.50;97.30;;;;;;5045528;28;20214;-87
2022/11/06 00:54:20;;;;;;;4.93;2.63;;;3.50;97.30;;;;;;5035857;28;20183;-87
2022/11/06 00:56:46;;;;;;;2.47;2.27;;;3.50;97.30;;;;;;5057333;28;20184;-89
2022/11/06 00:59:13;;;;;;;10.53;3.50;;;3.40;97.30;;;;;;5057700;28;20164;-84
2022/11/06 01:01:43;;;;;;;8.53;2.80;;;3.40;97.30;;;;;;5084020;28;20182;-88
2022/11/06 01:04:17;;;;;;;2.70;2.50;;;3.40;97.30;;;;;;5063507;28;20844;-88
2022/11/06 01:06:51;;;;;;;6.20;3.03;;;3.40;97.30;;;;;;5065818;28;20464;-86
2022/11/06 01:09:20;;;;;;;6.50;4.10;;;3.40;97.30;;;;;;5052590;28;20493;-87
2022/11/06 01:11:51;;;;;;;1.90;1.87;;;3.40;97.30;;;;;;5034150;28;20418;-87
2022/11/06 01:14:18;;;;;;;2.93;2.60;;;3.30;97.30;;;;;;5051443;28;20418;-87
2022/11/06 01:16:44;;;;;;;2.50;2.30;;;3.30;97.30;;;;;;5045851;28;20429;-87
2022/11/06 01:19:11;;;;;;;7.83;2.80;;;3.30;97.30;;;;;;5046113;28;20530;-87
2022/11/06 01:21:39;;;;;;;10.07;2.77;;;3.30;97.30;;;;;;5033478;28;20476;-86
2022/11/06 01:24:19;;;;;;;1.70;1.60;;;3.40;97.30;;;;;;5040692;28;20410;-87
2022/11/06 01:26:45;;;;;;;1.60;1.50;;;3.40;97.30;;;;;;5067979;28;20439;-87
2022/11/06 01:29:13;;;;;;;2.50;2.30;;;3.50;97.30;;;;;;5042176;28;20449;-87
2022/11/06 01:31:39;;;;;;;2.57;1.87;;;3.50;97.30;;;;;;5036607;28;20414;-86
2022/11/06 01:34:05;;;;;;;2.57;2.37;;;3.50;97.30;;;;;;5033100;28;20476;-85
2022/11/06 01:36:32;;;;;;;1.93;1.83;;;3.60;97.30;;;;;;5033124;28;20438;-86
2022/11/06 01:39:01;;;;;;;2.30;2.10;;;3.60;97.30;;;;;;5050997;28;20454;-87
2022/11/06 01:41:37;;;;;;;2.40;1.73;;;3.70;97.30;;;;;;5036593;28;20424;-86
2022/11/06 01:44:05;;;;;;;5.33;3.37;;;3.70;97.30;;;;;;5041028;28;20430;-87
2022/11/06 01:46:33;;;;;;;1.90;1.80;;;3.70;97.30;;;;;;5037667;28;20433;-87
2022/11/06 01:49:05;;;;;;;5.00;3.10;;;3.60;97.30;;;;;;5052576;28;20767;-86
2022/11/06 01:51:39;;;;;;;5.60;4.20;;;3.70;97.30;;;;;;5039380;28;20470;-87
2022/11/06 01:54:07;;;;;;;3.13;2.70;;;3.80;97.30;;;;;;5051816;28;20424;-87
2022/11/06 01:56:33;;;;;;;3.63;2.37;;;3.80;97.30;;;;;;5050935;28;20460;-87
2022/11/06 01:59:00;;;;;;;2.40;2.10;;;3.90;97.30;;;;;;5045631;28;20425;-87
2022/11/06 02:01:28;;;;;;;2.53;1.90;;;3.90;97.30;;;;;;5033069;28;20425;-87
2022/11/06 02:04:08;;;;;;;4.30;1.57;;;3.90;97.30;;;;;;5051807;28;20788;-85
2022/11/06 02:06:35;;;;;;;4.67;3.53;;;3.90;97.30;;;;;;5042717;28;20567;-86
2022/11/06 02:09:11;;;;;;;5.23;3.63;;;3.90;97.30;;;;;;5039524;28;20456;-88
2022/11/06 02:12:27;;;;;;;1.70;1.60;;;3.90;97.30;;;;;;5041236;28;20468;-87
2022/11/06 02:15:36;;;;;;;2.23;2.03;;;4.00;97.30;;;;;;5037846;28;20485;-84
2022/11/06 02:18:39;;;;;;;4.70;4.40;;;4.10;97.30;;;;;;5032781;28;20473;-87
2022/11/06 02:21:48;;;;;;;1.73;1.63;;;4.20;97.30;;;;;;5041503;28;20417;-87
2022/11/06 02:24:55;;;;;;;9.83;2.40;;;4.30;97.30;;;;;;5022603;28;20410;-87
2022/11/06 02:27:26;;;;;;;1.30;1.20;;;4.30;97.30;;;;;;4933698;29;20450;-87
2022/11/06 02:30:04;;;;;;;4.93;2.03;;;4.30;97.30;;;;;;5018829;28;20438;-87
2022/11/06 02:32:56;;;;;;;3.53;2.83;;;4.30;97.30;;;;;;5041887;28;20413;-88
2022/11/06 02:35:39;;;;;;;1.60;1.50;;;4.30;97.30;;;;;;5032426;28;20442;-87
2022/11/06 02:38:14;;;;;;;2.53;2.30;;;4.20;97.30;;;;;;5032649;28;20465;-87
2022/11/06 02:40:45;;;;;;;3.00;1.70;;;4.20;97.30;;;;;;5032295;28;20448;-87
2022/11/06 02:43:15;;;;;;;2.87;2.70;;;4.20;97.30;;;;;;5050630;28;20696;-86
2022/11/06 02:45:48;;;;;;;1.40;1.30;;;4.30;97.30;;;;;;5036607;28;20488;-88
2022/11/06 02:48:18;;;;;;;3.60;3.43;;;4.40;97.30;;;;;;5036461;28;20449;-88
2022/11/06 02:50:49;;;;;;;7.07;2.67;;;4.40;97.30;;;;;;5049456;28;20492;-87
2022/11/06 02:53:16;;;;;;;2.50;1.60;;;4.50;97.30;;;;;;5036243;28;20445;-87
2022/11/06 02:55:49;;;;;;;1.70;1.60;;;4.50;97.30;;;;;;5049329;28;20410;-87
2022/11/06 02:58:20;;;;;;;2.33;2.13;;;4.60;97.30;;;;;;5036144;28;20418;-87
2022/11/06 03:01:21;;;;;;;1.77;1.70;;;4.60;97.30;;;;;;5054263;28;20418;-86
2022/11/06 03:03:53;;;;;;;2.70;2.50;;;4.80;97.30;;;;;;4994383;28;20448;-86
2022/11/06 03:06:28;;;;;;;3.33;1.77;;;4.80;97.30;;;;;;5047871;28;20434;-87
2022/11/06 03:09:08;;;;;;;21.50;3.07;;;4.80;97.30;;;;;;5036019;28;20454;-86
2022/11/06 03:11:37;;;;;;;2.80;2.60;;;4.90;97.30;;;;;;5046686;28;20507;-87
2022/11/06 03:14:18;;;;;;;1.97;1.67;;;4.90;97.30;;;;;;5038324;28;20716;-87
2022/11/06 03:17:04;;;;;;;3.13;2.40;;;4.90;97.30;;;;;;5048136;28;20530;-87
2022/11/06 03:19:59;;;;;;;2.73;2.53;;;5.00;97.30;;;;;;5036010;28;20506;-86
2022/11/06 03:22:25;;;;;;;2.37;2.17;;;5.10;97.30;;;;;;5031475;28;20495;-87
2022/11/06 03:24:52;;;;;;;2.80;2.60;;;5.10;97.30;;;;;;5036235;28;20792;-87
2022/11/06 03:27:35;;;;;;;2.23;2.03;;;5.20;97.30;;;;;;5042666;28;20628;-87
2022/11/06 03:30:05;;;;;;;2.10;1.73;;;5.20;97.30;;;;;;5038649;28;20430;-87
2022/11/06 03:32:39;;;;;;;2.77;2.60;;;5.20;97.30;;;;;;5035931;28;20436;-87
2022/11/06 03:35:08;;;;;;;4.73;3.80;;;5.20;97.30;;;;;;5039741;28;20773;-85
2022/11/06 03:37:43;;;;;;;3.20;3.00;;;5.20;97.30;;;;;;5051912;28;20481;-87
2022/11/06 03:40:14;;;;;;;4.10;3.90;;;5.30;97.30;;;;;;5044627;28;20433;-87
2022/11/06 03:42:42;;;;;;;5.33;2.60;;;5.30;97.30;;;;;;5033064;28;21080;-87
2022/11/06 03:45:19;;;;;;;2.60;2.40;;;5.20;97.30;;;;;;5039045;28;20965;-87
2022/11/06 03:47:49;;;;;;;1.97;1.33;;;5.20;97.30;;;;;;5049849;28;21010;-87
2022/11/06 03:50:33;;;;;;;3.03;2.83;;;5.20;97.30;;;;;;5032039;28;20557;-87
2022/11/06 03:53:01;;;;;;;1.60;1.50;;;5.20;97.30;;;;;;5032792;28;20423;-88
2022/11/06 03:55:32;;;;;;;3.67;2.93;;;5.20;97.30;;;;;;5052166;28;20415;-88
2022/11/06 03:58:07;;;;;;;6.80;2.33;;;5.20;97.30;;;;;;5056531;28;20470;-88
2022/11/06 04:00:39;;;;;;;6.50;2.93;;;5.20;97.30;;;;;;5045938;28;20449;-87
2022/11/06 04:03:27;;;;;;;2.77;2.57;;;5.20;97.30;;;;;;5043295;28;20412;-88
2022/11/06 04:06:07;;;;;;;5.57;3.90;;;5.30;97.30;;;;;;5032194;28;20419;-85
2022/11/06 04:14:29;;;;;;;8.57;3.33;;;5.30;97.30;;;;;;5034101;28;20748;-87
2022/11/06 04:17:01;;;;;;;4.33;2.00;;;5.30;97.30;;;;;;5032025;28;20446;-88
2022/11/06 04:19:29;;;;;;;6.43;3.00;;;5.20;97.30;;;;;;5031934;28;20573;-87
2022/11/06 04:22:17;;;;;;;4.60;2.33;;;5.20;97.30;;;;;;5044826;28;20419;-84
2022/11/06 04:28:12;;;;;;;2.50;2.30;;;5.20;97.30;;;;;;5043844;28;20492;-86
2022/11/06 04:30:53;;;;;;;2.10;1.97;;;5.20;97.30;;;;;;5031258;28;20419;-88
2022/11/06 04:33:27;;;;;;;5.50;3.70;;;5.10;97.30;;;;;;5031038;28;20439;-88
2022/11/06 04:36:11;;;;;;;2.47;1.67;;;5.10;97.30;;;;;;5031296;28;20775;-87
2022/11/06 04:39:11;;;;;;;5.10;2.40;;;5.10;97.30;;;;;;5031299;28;20855;-88
2022/11/06 04:41:50;;;;;;;5.30;4.20;;;5.10;97.30;;;;;;5031028;28;20418;-87
2022/11/06 04:44:38;;;;;;;9.77;4.70;;;5.00;97.30;;;;;;5030965;28;20423;-87
2022/11/06 04:47:08;;;;;;;4.10;1.67;;;5.00;97.30;;;;;;5030601;28;20436;-87
2022/11/06 04:49:36;;;;;;;1.77;1.67;;;5.10;97.30;;;;;;5042678;28;20509;-88
2022/11/06 04:52:05;;;;;;;6.30;3.40;;;5.10;97.30;;;;;;5039137;28;20767;-87
2022/11/06 04:54:31;;;;;;;2.30;1.90;;;5.10;97.30;;;;;;5038327;28;20498;-87
2022/11/06 04:57:00;;;;;;;14.13;2.53;;;5.10;97.30;;;;;;5036975;28;20952;-87
2022/11/06 04:59:26;;;;;;;3.83;2.07;;;5.20;97.30;;;;;;5030633;28;20474;-87
2022/11/06 05:01:52;;;;;;;4.70;3.70;;;5.20;97.30;;;;;;5029980;28;20427;-87
2022/11/06 05:04:18;;;;;;;4.83;4.23;;;5.20;97.30;;;;;;5044134;28;20179;-87
2022/11/06 05:06:44;;;;;;;2.20;2.03;;;5.20;97.30;;;;;;5041623;28;20516;-88
2022/11/06 05:09:09;;;;;;;2.80;2.43;;;5.20;97.30;;;;;;5031928;28;20851;-88
2022/11/06 05:11:37;;;;;;;3.10;2.90;;;5.20;97.30;;;;;;5030817;28;20206;-88
2022/11/06 05:14:03;;;;;;;2.87;2.70;;;5.20;97.30;;;;;;5044248;28;20180;-88
2022/11/06 05:16:28;;;;;;;2.50;2.30;;;5.20;97.30;;;;;;5031911;28;20811;-88
2022/11/06 05:18:54;;;;;;;3.27;2.50;;;5.20;97.30;;;;;;5031483;28;20254;-87
2022/11/06 05:24:04;;;;;;;5.83;3.50;;;5.20;97.30;;;;;;5050810;28;20237;-87
2022/11/06 05:26:30;;;;;;;1.50;1.40;;;5.30;97.30;;;;;;5042523;28;20431;-86
2022/11/06 05:28:55;;;;;;;4.90;3.30;;;5.30;97.30;;;;;;5029941;28;20455;-87
2022/11/06 05:31:21;;;;;;;6.10;3.23;;;5.40;97.30;;;;;;5048944;28;20172;-87
2022/11/06 05:33:47;;;;;;;2.70;2.50;;;5.40;97.30;;;;;;5036313;28;20180;-86
2022/11/06 05:36:12;;;;;;;3.63;2.47;;;5.40;97.30;;;;;;5044194;28;20204;-87
2022/11/06 05:38:38;;;;;;;4.00;2.60;;;5.40;97.30;;;;;;5030379;28;20236;-88
2022/11/06 05:41:04;;;;;;;1.93;1.80;;;5.40;97.30;;;;;;5029844;28;20336;-87
2022/11/06 05:43:29;;;;;;;3.53;3.03;;;5.40;97.30;;;;;;5040205;28;20207;-86
2022/11/06 05:46:18;;;;;;;2.70;2.23;;;5.40;97.30;;;;;;5045293;22;20207;-87
2022/11/06 05:49:08;;;;;;;3.00;2.80;;;5.40;97.30;;;;;;5030670;28;20216;-85
2022/11/06 05:51:59;;;;;;;4.60;4.30;;;5.40;97.30;;;;;;5017078;28;20420;-85
2022/11/06 05:54:59;;;;;;;2.30;2.10;;;5.40;97.30;;;;;;5015438;28;20430;-87
2022/11/06 05:57:28;;;;;;;4.97;3.87;;;5.40;97.30;;;;;;5024387;28;20463;-86
2022/11/06 05:59:58;;;;;;;6.33;2.97;;;5.40;97.30;;;;;;4997181;28;20419;-87
2022/11/06 06:02:48;;;;;;;4.67;3.97;;;5.40;97.30;;;;;;5011645;28;20784;-86
2022/11/06 06:05:29;;;;;;;9.83;3.07;;;5.40;97.30;;;;;;5019980;28;20434;-86
2022/11/06 06:08:39;;;;;;;4.77;2.93;;;5.40;97.30;;;;;;5014058;28;20468;-87
2022/11/06 06:11:07;;;;;;;2.17;2.00;;;5.40;97.30;;;;;;5003211;28;20417;-87
2022/11/06 06:13:36;;;;;;;2.53;2.33;;;5.40;97.30;;;;;;5010319;28;20415;-87
2022/11/06 06:16:02;;;;;;;3.00;2.20;;;5.40;97.30;;;;;;4997109;28;20450;-85
2022/11/06 06:18:28;;;;;;;7.60;3.23;;;5.30;97.30;;;;;;5008185;28;20416;-87
2022/11/06 06:20:53;;;;;;;2.63;2.40;;;5.30;97.30;;;;;;5005666;28;20417;-85
2022/11/06 06:23:19;;;;;;;1.70;1.60;;;5.30;97.30;;;;;;4999417;28;20173;-87
2022/11/06 06:25:44;;;;;;;9.50;2.80;;;5.30;97.30;;;;;;4996539;28;20185;-87
2022/11/06 06:28:10;;;;;;;5.17;2.53;;;5.30;97.30;;;;;;4996002;28;20596;-87
2022/11/06 06:30:35;;;;;;;3.93;3.23;;;5.30;97.30;;;;;;4991776;28;20452;-86
2022/11/06 06:33:05;;;;;;;2.23;2.03;;;5.30;97.30;;;;;;5008408;28;20180;-86
2022/11/06 06:35:32;;;;;;;2.97;2.77;;;5.30;97.30;;;;;;5018844;28;20188;-86
2022/11/06 06:37:58;;;;;;;6.63;3.57;;;5.30;97.30;;;;;;5011919;28;20446;-87
2022/11/06 06:40:25;;;;;;;5.20;2.80;;;5.30;97.30;;;;;;5018677;28;20494;-87
2022/11/06 06:42:50;;;;;;;3.20;3.00;;;5.40;97.30;;;;;;5010186;28;20440;-86
2022/11/06 06:45:16;;;;;;;5.23;2.60;;;5.40;97.30;;;;;;5009539;28;20467;-88
2022/11/06 06:47:42;;;;;;;2.30;2.10;;;5.40;97.30;;;;;;4994923;28;20312;-87
2022/11/06 06:50:08;;;;;;;2.73;2.53;;;5.40;97.30;;;;;;5010046;28;20255;-87
2022/11/06 06:52:33;;;;;;;3.13;2.47;;;5.50;97.30;;;;;;5022600;28;20173;-86
2022/11/06 06:54:59;;;;;;;6.00;3.97;;;5.50;97.30;;;;;;5014568;28;20438;-87
2022/11/06 06:57:24;;;;;;;3.57;3.37;;;5.60;97.30;;;;;;5018521;28;20189;-88
2022/11/06 06:59:50;;;;;;;2.70;2.50;;;5.60;97.30;;;;;;5008985;28;20720;-86
2022/11/06 07:02:15;;;;;;;1.60;1.50;;;5.60;97.30;;;;;;5011651;28;20196;-87
2022/11/06 07:04:41;;;;;;;10.53;3.10;;;5.70;97.30;;;;;;5018701;28;20185;-87
2022/11/06 07:07:06;;;;;;;4.00;3.80;;;5.70;97.30;;;;;;5027627;28;20197;-87
2022/11/06 07:09:32;;;;;;;8.13;3.57;;;5.80;97.30;;;;;;4996883;28;20232;-88
2022/11/06 07:11:58;;;;;;;2.90;2.70;;;5.80;97.30;;;;;;5014357;28;20170;-87
2022/11/06 07:14:23;;;;;;;3.17;3.00;;;5.90;97.30;;;;;;4990478;28;20190;-86
2022/11/06 07:16:49;;;;;;;10.80;2.60;;;6.00;97.30;;;;;;5014933;28;20214;-87
2022/11/06 07:19:16;;;;;;;4.40;3.70;;;6.00;97.30;;;;;;5009117;28;20189;-87
2022/11/06 07:21:41;;;;;;;5.43;2.10;;;6.10;97.30;;;;;;5009219;28;20181;-87
2022/11/06 07:24:07;;;;;;;4.00;1.87;;;6.10;97.30;;;;;;5006973;28;20421;-87
2022/11/06 07:26:33;;;;;;;3.43;2.60;;;6.20;97.30;;;;;;4997041;28;20205;-87
2022/11/06 07:28:58;;;;;;;34.17;4.60;;;6.30;97.30;;;;;;5009566;28;20273;-86
2022/11/06 07:31:24;;;;;;;6.70;3.57;;;6.30;97.30;;;;;;5050233;28;20184;-86
2022/11/06 07:33:49;;;;;;;5.23;2.50;;;6.40;97.30;;;;;;5021015;28;20181;-87
2022/11/06 07:36:15;;;;;;;5.30;3.30;;;6.50;97.30;;;;;;5010603;28;20293;-87
2022/11/06 07:38:41;;;;;;;2.90;2.70;;;6.60;97.30;;;;;;5008507;28;20652;-87
2022/11/06 07:41:09;;;;;;;3.63;3.43;;;6.70;97.30;;;;;;5005144;28;20177;-85
2022/11/06 07:43:35;;;;;;;4.40;2.63;;;6.80;97.30;;;;;;5044056;28;20435;-88
2022/11/06 07:46:03;;;;;;;6.47;1.90;;;6.80;97.30;;;;;;5010440;28;20472;-89
2022/11/06 07:48:29;;;;;;;5.73;2.80;;;6.90;97.30;;;;;;5015650;28;20458;-87
2022/11/06 07:50:55;;;;;;;8.90;4.97;;;7.00;97.30;;;;;;5007770;28;20413;-86
2022/11/06 07:53:21;;;;;;;1.90;1.80;;;7.10;97.30;;;;;;5007024;28;20769;-87
2022/11/06 07:55:52;;;;;;;3.50;3.30;;;7.10;97.30;;;;;;5006634;28;20418;-87
2022/11/06 07:58:18;;;;;;;3.70;2.67;;;7.20;97.30;;;;;;5000417;28;20443;-87
2022/11/06 08:00:48;;;;;;;5.27;4.97;;;7.30;97.30;;;;;;5000968;28;20528;-87
2022/11/06 08:03:14;;;;;;;1.77;1.70;;;7.40;97.30;;;;;;5000099;28;20420;-88
2022/11/06 08:05:40;;;;;;;3.53;2.60;;;7.50;97.30;;;;;;4999223;28;20971;-87
2022/11/06 08:08:06;;;;;;;3.97;3.07;;;7.60;97.30;;;;;;4999265;28;20464;-89
2022/11/06 08:10:31;;;;;;;6.20;2.77;;;7.70;97.30;;;;;;4999517;28;20421;-87
2022/11/06 08:12:59;;;;;;;1.83;1.77;;;7.80;97.30;;;;;;5017873;28;20272;-88
2022/11/06 08:15:24;;;;;;;2.00;1.90;;;7.90;97.30;;;;;;5019450;28;20174;-87
2022/11/06 08:17:50;;;;;;;2.33;2.13;;;8.00;97.30;;;;;;5017119;28;20451;-86
2022/11/06 08:20:16;;;;;;;2.90;2.70;;;8.00;97.30;;;;;;5004689;28;20181;-87
2022/11/06 08:22:41;;;;;;;7.47;2.90;;;8.00;97.30;;;;;;5012291;28;20285;-87
2022/11/06 08:25:08;;;;;;;2.87;1.60;;;8.00;97.30;;;;;;5013784;28;20256;-88
2022/11/06 08:27:33;;;;;;;2.80;2.47;;;8.00;97.30;;;;;;5024068;28;20209;-88
2022/11/06 08:29:59;;;;;;;2.40;2.20;;;8.10;97.30;;;;;;5025043;28;20454;-88
2022/11/06 08:32:24;;;;;;;2.07;1.77;;;8.20;97.30;;;;;;5003835;28;20675;-88
2022/11/06 08:34:50;;;;;;;9.50;3.80;;;8.30;97.30;;;;;;5019071;28;20172;-87
2022/11/06 08:37:15;;;;;;;1.87;1.77;;;8.40;97.30;;;;;;5009132;28;20256;-87
2022/11/06 08:39:43;;;;;;;2.60;2.40;;;8.50;97.30;;;;;;5016267;28;20679;-88
2022/11/06 08:42:08;;;;;;;2.80;2.23;;;8.50;97.30;;;;;;5002120;28;20177;-87
2022/11/06 08:44:34;;;;;;;2.23;2.03;;;8.60;97.30;;;;;;5003587;28;20724;-88
2022/11/06 08:46:59;;;;;;;2.80;2.60;;;8.60;97.30;;;;;;5021782;28;20221;-86
2022/11/06 08:49:25;;;;;;;4.03;2.50;;;8.70;97.30;;;;;;5022296;28;20196;-88
2022/11/06 08:51:51;;;;;;;1.77;1.73;;;8.80;97.30;;;;;;4994518;28;20166;-87
2022/11/06 08:54:16;;;;;;;3.13;2.73;;;8.90;97.30;;;;;;5016572;28;20248;-88
2022/11/06 08:56:42;;;;;;;3.50;2.43;;;8.90;97.30;;;;;;5004908;28;20200;-86
2022/11/06 08:59:07;;;;;;;2.37;1.80;;;9.00;97.30;;;;;;5029711;28;20347;-86
2022/11/06 09:01:33;;;;;;;6.73;3.63;;;9.00;97.30;;;;;;5005442;28;20662;-89
2022/11/06 09:03:58;;;;;;;7.53;2.80;;;9.10;97.30;;;;;;5009583;28;20199;-89
2022/11/06 09:06:24;;;;;;;8.00;2.50;;;9.20;97.30;;;;;;5011408;28;20211;-88
2022/11/06 09:08:52;;;;;;;9.63;4.37;;;9.20;97.30;;;;;;4993943;28;20205;-87
2022/11/06 09:11:18;;;;;;;3.53;3.27;;;9.30;97.30;;;;;;4994050;28;20429;-88
2022/11/06 09:13:43;;;;;;;3.87;2.97;;;9.40;97.30;;;;;;5011829;28;20456;-87
2022/11/06 09:16:09;;;;;;;2.70;2.50;;;9.50;97.30;;;;;;4997473;28;20215;-87
2022/11/06 09:18:34;;;;;;;1.90;1.77;;;9.50;97.30;;;;;;5017713;28;20184;-88
2022/11/06 09:21:00;;;;;;;3.80;3.03;;;9.60;97.30;;;;;;5030072;28;20184;-88
2022/11/06 09:23:26;;;;;;;5.03;3.40;;;9.60;97.30;;;;;;5017619;28;20185;-88
2022/11/06 09:25:51;;;;;;;4.30;1.37;;;9.70;97.30;;;;;;5011440;28;20220;-87
2022/11/06 09:28:17;;;;;;;4.60;2.03;;;9.70;97.30;;;;;;5023735;28;20204;-88
2022/11/06 09:30:42;;;;;;;4.40;1.93;;;9.80;97.30;;;;;;5010772;28;20182;-86
2022/11/06 09:33:08;;;;;;;1.43;1.37;;;9.90;97.30;;;;;;5010150;28;20672;-88
2022/11/06 09:35:35;;;;;;;2.57;2.37;;;10.00;97.30;;;;;;5018427;28;20212;-87
2022/11/06 09:38:06;;;;;;;3.13;2.33;;;10.00;97.30;;;;;;5011529;28;20189;-85
2022/11/06 09:40:41;;;;;;;2.73;2.53;;;10.10;97.30;;;;;;5001898;28;20423;-87
2022/11/06 09:43:27;;;;;;;2.87;1.97;;;10.20;97.30;;;;;;5008939;28;20438;-89
2022/11/06 09:45:54;;;;;;;4.53;3.60;;;10.30;97.30;;;;;;5005721;28;20419;-87
2022/11/06 09:48:32;;;;;;;3.43;1.90;;;10.30;97.30;;;;;;5003354;28;20998;-88
2022/11/06 09:51:23;;;;;;;2.60;1.93;;;10.30;97.30;;;;;;5009332;28;20914;-87
2022/11/06 09:54:01;;;;;;;2.60;2.00;;;10.40;97.30;;;;;;5023295;28;20416;-87
2022/11/06 09:56:32;;;;;;;2.63;1.73;;;10.40;97.30;;;;;;5015172;28;20437;-88
2022/11/06 09:59:02;;;;;;;2.10;1.97;;;10.50;97.30;;;;;;5027319;28;20428;-88
2022/11/06 10:01:44;;;;;;;2.50;2.27;;;10.60;97.30;;;;;;5037104;28;20429;-89
2022/11/06 10:04:40;;;;;;;2.27;2.07;;;10.70;97.30;;;;;;5038975;28;20427;-85
2022/11/06 10:07:23;;;;;;;1.47;1.40;;;10.80;97.30;;;;;;5043387;28;20448;-88
2022/11/06 10:09:49;;;;;;;1.83;1.47;;;10.90;97.30;;;;;;5021712;28;20428;-87
2022/11/06 10:12:28;;;;;;;1.43;1.33;;;11.00;97.00;;;;;;5000530;28;20799;-87
2022/11/06 10:15:25;;;;;;;2.50;1.53;;;10.90;97.10;;;;;;4995537;28;20272;-86
2022/11/06 10:18:30;;;;;;;2.23;1.93;;;11.00;97.30;;;;;;4938553;28;20463;-86
2022/11/06 10:21:11;;;;;;;3.17;1.93;;;11.10;96.70;;;;;;4987424;28;20490;-87
2022/11/06 10:23:55;;;;;;;2.70;2.50;;;11.20;96.30;;;;;;5029552;28;20423;-86
2022/11/06 10:26:40;;;;;;;1.43;1.23;;;11.20;95.90;;;;;;5026694;28;20509;-88
2022/11/06 10:29:38;;;;;;;1.17;1.13;;;11.30;95.90;;;;;;5009451;28;20463;-87
2022/11/06 10:32:25;;;;;;;2.20;2.00;;;11.30;95.40;;;;;;5009788;28;20420;-88
2022/11/06 10:34:59;;;;;;;6.33;2.70;;;11.40;95.50;;;;;;5009888;28;20503;-88
2022/11/06 10:37:54;;;;;;;4.40;2.87;;;11.30;95.00;;;;;;5023118;28;21053;-88
2022/11/06 10:40:27;;;;;;;3.40;3.20;;;11.40;95.70;;;;;;4991675;28;20989;-88
2022/11/06 10:43:13;;;;;;;1.40;1.30;;;11.50;95.40;;;;;;5008185;28;20448;-87
2022/11/06 10:45:43;;;;;;;2.37;2.17;;;11.60;95.30;;;;;;4991656;28;20437;-88
2022/11/06 10:48:21;;;;;;;1.00;0.90;;;11.60;94.20;;;;;;4994714;28;20535;-85
2022/11/06 10:51:21;;;;;;;2.03;1.27;;;11.60;94.00;;;;;;5010344;28;20498;-87
2022/11/06 10:54:05;;;;;;;1.17;1.07;;;11.70;94.30;;;;;;5013046;28;20416;-87
2022/11/06 10:56:38;;;;;;;1.47;1.43;;;11.80;94.10;;;;;;5020737;28;20765;-86
2022/11/06 10:59:04;;;;;;;2.00;1.33;;;11.80;93.50;;;;;;4997806;28;20424;-85
2022/11/06 11:01:30;;;;;;;2.13;1.53;;;11.90;93.80;;;;;;5009943;28;20442;-88
2022/11/06 11:03:55;;;;;;;1.87;1.47;;;11.90;93.50;;;;;;5027067;28;20415;-89
2022/11/06 11:06:24;;;;;;;2.50;1.73;;;11.90;93.10;;;;;;5006719;28;20287;-86
2022/11/06 11:08:50;;;;;;;1.87;1.30;;;12.00;93.30;;;;;;5024893;28;20603;-87
2022/11/06 11:11:25;;;;;;;1.40;1.40;;;12.00;92.40;;;;;;5015185;28;20834;-88
2022/11/06 11:13:59;;;;;;;1.30;1.20;;;12.10;92.90;;;;;;5000862;28;20450;-88
2022/11/06 11:16:34;;;;;;;4.60;1.30;;;12.30;92.90;;;;;;5001949;28;20454;-87
2022/11/06 11:19:31;;;;;;;1.80;1.57;;;12.40;92.20;;;;;;5024560;28;20427;-88
2022/11/06 11:21:59;;;;;;;1.33;1.30;;;12.40;91.80;;;;;;4997623;28;20482;-87
2022/11/06 11:24:25;;;;;;;1.87;1.87;;;12.50;91.80;;;;;;5012141;28;20428;-88
2022/11/06 11:27:01;;;;;;;1.67;1.57;;;12.50;91.20;;;;;;5027567;28;20714;-88
2022/11/06 11:29:40;;;;;;;2.07;1.57;;;12.50;91.40;;;;;;5025537;28;20479;-87
2022/11/06 11:32:06;;;;;;;1.43;1.33;;;12.60;91.60;;;;;;5026852;28;20426;-90
2022/11/06 11:34:45;;;;;;;3.23;2.97;;;12.70;91.00;;;;;;5045887;28;20438;-88
2022/11/06 11:37:28;;;;;;;1.20;1.20;;;12.70;90.90;;;;;;5032320;28;20820;-86
2022/11/06 11:39:55;;;;;;;2.30;1.87;;;12.70;90.80;;;;;;5020619;28;20412;-87
2022/11/06 11:42:30;;;;;;;3.00;1.80;;;12.80;90.60;;;;;;5034968;28;20466;-86
2022/11/06 11:45:18;;;;;;;1.73;1.30;;;12.80;90.50;;;;;;5029802;28;20422;-87
2022/11/06 11:47:46;;;;;;;1.43;1.43;;;12.80;90.30;;;;;;5024476;28;20525;-90
2022/11/06 11:50:15;;;;;;;4.70;3.00;;;12.80;90.00;;;;;;5030789;28;20454;-87
2022/11/06 11:52:42;;;;;;;3.37;1.97;;;12.90;90.30;;;;;;5019795;28;20460;-88
2022/11/06 11:55:17;;;;;;;3.43;1.60;;;13.00;90.60;;;;;;5023998;28;20560;-87
2022/11/06 11:57:45;;;;;;;6.33;1.80;;;13.20;90.10;;;;;;5012511;28;20928;-88
2022/11/06 12:00:20;;;;;;;1.77;1.63;;;13.30;89.30;;;;;;5000344;28;20439;-89
2022/11/06 12:03:09;;;;;;;1.23;1.13;;;13.50;89.70;;;;;;5023963;28;20426;-86
2022/11/06 12:05:38;;;;;;;2.53;2.07;;;13.60;89.00;;;;;;5022641;28;20427;-87
2022/11/06 12:08:11;;;;;;;1.70;1.60;;;13.70;88.80;;;;;;5016648;28;20459;-86
2022/11/06 12:10:43;;;;;;;1.27;1.20;;;13.80;88.80;;;;;;5010380;28;20429;-87
2022/11/06 12:13:11;;;;;;;8.53;1.43;;;14.00;88.10;;;;;;4998111;28;20516;-88
2022/11/06 12:15:59;;;;;;;2.50;1.53;;;14.10;88.30;;;;;;5019724;28;20470;-89
2022/11/06 12:18:42;;;;;;;4.77;1.87;;;14.20;88.10;;;;;;4993170;28;20425;-84
2022/11/06 12:21:26;;;;;;;;;;;;;;;;;;;;;
2022/11/06 12:24:40;;;;;;;;;;;;;;;;;;;;;
2022/11/06 12:33:59;;;;;;;1.73;1.57;;;14.10;86.40;;;;;;4944881;29;20419;-84
2022/11/06 12:37:29;;;;;;;1.00;0.90;;;14.40;87.00;;;;;;4942320;28;20439;-83
2022/11/06 12:40:29;;;;;;;2.93;1.63;;;14.50;85.80;;;;;;4956661;28;20425;-85
2022/11/06 12:43:19;;;;;;;1.50;1.40;;;14.80;86.30;;;;;;4940093;28;20409;-85
2022/11/06 12:46:18;;;;;;;2.23;1.73;;;15.00;85.80;;;;;;4940639;29;20458;-86
2022/11/06 12:49:29;;;;;;;1.93;1.83;;;15.20;84.60;;;;;;4934753;29;20482;-85
2022/11/06 12:52:59;;;;;;;;;;;;;;;;;;;;;
2022/11/06 12:59:09;;;;;;;1.20;1.10;;;14.90;83.90;;;;;;5005829;28;20484;-85
2022/11/06 13:02:00;;;;;;;2.70;2.03;;;14.90;84.70;;;;;;4989818;28;20424;-87
2022/11/06 13:08:29;;;;;;;10.67;2.70;;;15.70;84.30;;;;;;4874819;29;20526;-87
2022/11/06 13:11:30;;;;;;;1.57;1.53;;;15.70;83.60;;;;;;4878572;29;20461;-85
2022/11/06 13:14:18;;;;;;;2.03;1.63;;;15.50;83.00;;;;;;4860122;29;20422;-85
2022/11/06 13:17:38;;;;;;;1.30;1.20;;;15.50;83.20;;;;;;4879679;29;20489;-87
2022/11/06 13:20:19;;;;;;;1.40;1.30;;;15.50;83.80;;;;;;4801907;29;20431;-86
2022/11/06 13:31:39;;;;;;;2.40;1.63;;;15.60;82.80;;;;;;5031528;28;20467;-85
2022/11/06 13:34:40;;;;;;;1.43;1.40;;;15.50;83.10;;;;;;5013901;28;20993;-85
2022/11/06 13:37:48;;;;;;;1.43;1.40;;;15.50;82.80;;;;;;5063625;23;20528;-85
2022/11/06 13:40:48;;;;;;;2.47;2.20;;;15.60;83.10;;;;;;4984512;28;20444;-86
2022/11/06 13:44:14;;;;;;;2.53;1.20;;;15.70;82.90;;;;;;4954214;28;20512;-86
2022/11/06 13:46:51;;;;;;;3.33;1.67;;;15.90;81.90;;;;;;4908351;29;20999;-86
2022/11/06 13:49:57;;;;;;;6.67;2.10;;;16.00;81.30;;;;;;4930169;29;20459;-86
2022/11/06 13:52:58;;;;;;;1.83;1.17;;;15.90;81.60;;;;;;4928888;29;20447;-87
2022/11/06 13:59:37;;;;;;;1.50;1.40;;;16.00;82.60;;;;;;4925505;29;20561;-86
2022/11/06 14:02:30;;;;;;;1.47;1.40;;;15.80;82.90;;;;;;4940830;29;20423;-85
2022/11/06 14:08:42;;;;;;;;;;;;;;;;;;;;;
2022/11/06 14:11:17;;;;;;;3.43;2.17;;;15.80;83.70;;;;;;4943550;29;20422;-87
2022/11/06 14:14:11;;;;;;;2.40;2.00;;;15.80;83.80;;;;;;4914727;29;20419;-87
2022/11/06 14:16:39;;;;;;;2.00;1.90;;;15.70;84.10;;;;;;4918416;29;20480;-87